Time;durP1;ratioP1;P1;durP2;ratioP2;P2;SDS_P1;SDS_P2;PMS_P1;PMS_P2;Temp;Humidity;BMP_temperature;BMP_pressure;BME280_temperature;BME280_humidity;BME280_pressure;Samples;Min_cycle;Max_cycle;Signal;HPM_P1;HPM_P2
2023/06/17 00:01:09;;;;;;;5.28;3.85;;;14.70;99.90;;;13.18;100.00;97630.22;4977740;28;20330;-73
2023/06/17 00:03:36;;;;;;;6.13;4.40;;;14.60;99.90;;;13.19;100.00;97624.94;4979072;28;20050;-74
2023/06/17 00:06:07;;;;;;;7.00;3.65;;;14.60;99.90;;;13.31;100.00;97627.84;4977287;28;20515;-74
2023/06/17 00:08:34;;;;;;;7.50;3.60;;;14.60;99.90;;;13.22;100.00;97623.09;4980771;28;20052;-74
2023/06/17 00:11:01;;;;;;;5.50;3.58;;;14.50;99.90;;;12.95;100.00;97624.47;5008306;28;20113;-74
2023/06/17 00:13:28;;;;;;;9.82;3.95;;;14.50;99.90;;;12.82;100.00;97627.75;4976701;28;20074;-73
2023/06/17 00:15:59;;;;;;;4.38;3.17;;;14.40;99.90;;;13.14;100.00;97619.13;5005912;28;20049;-73
2023/06/17 00:18:26;;;;;;;8.23;4.30;;;14.40;99.90;;;13.28;100.00;97621.03;4977613;28;20054;-74
2023/06/17 00:20:54;;;;;;;7.63;4.03;;;14.50;99.90;;;12.93;100.00;97621.09;5006424;28;20054;-74
2023/06/17 00:23:25;;;;;;;7.93;4.00;;;14.50;99.90;;;12.84;100.00;97625.91;4975761;28;20525;-74
2023/06/17 00:25:52;;;;;;;7.47;3.95;;;14.40;99.90;;;13.00;100.00;97620.75;4978909;28;20487;-74
2023/06/17 00:28:20;;;;;;;8.60;3.83;;;14.30;99.90;;;13.19;100.00;97614.50;4976597;28;20093;-74
2023/06/17 00:30:47;;;;;;;8.15;3.53;;;14.30;99.90;;;13.22;100.00;97610.06;4983225;28;20050;-74
2023/06/17 00:33:15;;;;;;;5.82;3.72;;;14.50;99.90;;;12.94;100.00;97612.34;5011953;28;20480;-74
2023/06/17 00:35:42;;;;;;;8.00;4.00;;;14.40;99.90;;;13.07;100.00;97617.78;4976763;28;20055;-74
2023/06/17 00:38:09;;;;;;;5.60;3.22;;;14.30;99.90;;;13.25;100.00;97615.09;4976482;28;20077;-74
2023/06/17 00:40:36;;;;;;;8.75;3.78;;;14.30;99.90;;;13.11;100.00;97613.22;4999415;28;20058;-74
2023/06/17 00:43:04;;;;;;;5.72;4.18;;;14.30;99.90;;;13.07;100.00;97609.97;4977626;28;20063;-74
2023/06/17 00:45:38;;;;;;;5.78;3.78;;;14.30;99.90;;;12.96;100.00;97614.88;4984955;28;20054;-74
2023/06/17 00:48:10;;;;;;;8.00;3.85;;;14.20;99.90;;;12.88;100.00;97610.03;5002719;28;20541;-73
2023/06/17 00:50:38;;;;;;;10.38;4.32;;;14.20;99.90;;;13.05;100.00;97613.56;5013838;28;20046;-74
2023/06/17 00:53:06;;;;;;;6.50;3.78;;;14.20;99.90;;;12.98;100.00;97613.88;5011805;28;20078;-74
2023/06/17 00:55:33;;;;;;;5.03;3.28;;;14.20;99.90;;;12.79;100.00;97615.72;4982879;28;20080;-74
2023/06/17 00:58:01;;;;;;;5.63;3.20;;;14.10;99.90;;;12.68;100.00;97616.28;4983423;28;21665;-74
2023/06/17 01:00:29;;;;;;;7.70;3.70;;;14.00;99.90;;;12.86;100.00;97614.50;5012896;28;20054;-73
2023/06/17 01:02:56;;;;;;;8.80;3.65;;;14.00;99.90;;;12.89;100.00;97611.75;4979424;28;20062;-73
2023/06/17 01:05:24;;;;;;;6.07;4.00;;;14.10;99.90;;;12.71;100.00;97612.69;4982922;28;20073;-74
2023/06/17 01:08:16;;;;;;;8.73;3.65;;;14.10;99.90;;;12.81;100.00;97616.50;5012907;28;20053;-73
2023/06/17 01:11:04;;;;;;;11.15;4.47;;;14.00;99.90;;;12.77;100.00;97612.34;4979369;28;20584;-73
2023/06/17 01:13:33;;;;;;;7.28;4.05;;;14.00;99.90;;;12.66;100.00;97609.47;4979849;28;20055;-74
2023/06/17 01:16:01;;;;;;;7.03;3.80;;;14.00;99.90;;;12.68;100.00;97613.69;4996259;28;20482;-74
2023/06/17 01:18:29;;;;;;;6.28;3.97;;;14.00;99.90;;;12.65;100.00;97608.63;4980951;28;20054;-73
2023/06/17 01:20:58;;;;;;;6.60;3.83;;;13.90;99.90;;;12.37;100.00;97616.13;5012096;28;20125;-73
2023/06/17 01:23:34;;;;;;;6.85;4.07;;;13.90;99.90;;;12.25;100.00;97610.59;4981533;28;20130;-74
2023/06/17 01:26:02;;;;;;;9.35;4.80;;;13.70;99.90;;;12.41;100.00;97615.06;4984664;28;20053;-73
2023/06/17 01:28:31;;;;;;;6.38;3.85;;;13.60;99.90;;;12.25;100.00;97614.97;4985872;28;20507;-73
2023/06/17 01:30:59;;;;;;;5.97;3.97;;;13.60;99.90;;;12.10;100.00;97614.78;4975903;28;20086;-73
2023/06/17 01:33:26;;;;;;;6.70;3.70;;;13.50;99.90;;;12.18;100.00;97608.34;4997893;28;20431;-73
2023/06/17 01:36:05;;;;;;;8.30;3.95;;;13.40;99.90;;;12.11;100.00;97607.81;4981792;28;20046;-73
2023/06/17 01:38:42;;;;;;;7.40;3.50;;;13.40;99.90;;;11.96;100.00;97618.97;4994124;28;20051;-74
2023/06/17 01:41:16;;;;;;;5.72;3.78;;;13.40;99.90;;;12.03;100.00;97628.16;5008056;28;20051;-73
2023/06/17 01:43:45;;;;;;;6.15;4.05;;;13.40;99.90;;;12.05;100.00;97616.78;4980984;28;20579;-73
2023/06/17 01:46:13;;;;;;;6.32;4.15;;;13.40;99.90;;;11.99;100.00;97619.66;4979517;28;20582;-73
2023/06/17 01:48:42;;;;;;;6.88;3.80;;;13.40;99.90;;;11.85;100.00;97614.25;4994646;28;20117;-73
2023/06/17 01:51:09;;;;;;;7.40;3.92;;;13.30;99.90;;;11.78;100.00;97613.69;4984155;28;20132;-73
2023/06/17 01:53:37;;;;;;;6.03;3.80;;;;;;;11.72;100.00;97614.81;4976671;28;20530;-74
2023/06/17 01:56:04;;;;;;;7.70;4.18;;;13.20;99.90;;;11.67;100.00;97621.13;4978932;28;20062;-73
2023/06/17 01:58:35;;;;;;;6.30;3.97;;;13.10;99.90;;;11.51;100.00;97615.78;5009346;28;20046;-73
2023/06/17 02:01:06;;;;;;;6.55;4.18;;;13.10;99.90;;;11.44;100.00;97625.63;4978726;28;20046;-73
2023/06/17 02:03:33;;;;;;;9.60;3.80;;;13.00;99.90;;;11.54;100.00;97627.81;4982691;28;20511;-73
2023/06/17 02:06:00;;;;;;;8.10;4.30;;;12.90;99.90;;;11.43;100.00;97629.16;4975231;28;20043;-73
2023/06/17 02:08:27;;;;;;;7.38;3.53;;;12.90;99.90;;;11.50;100.00;97629.72;4979304;28;20455;-73
2023/06/17 02:10:55;;;;;;;5.85;3.60;;;12.80;99.90;;;11.30;100.00;97625.41;4980799;28;20081;-73
2023/06/17 02:13:22;;;;;;;6.75;4.07;;;12.80;99.90;;;11.16;100.00;97625.19;4978402;28;20136;-74
2023/06/17 02:15:49;;;;;;;5.43;3.40;;;12.70;99.90;;;11.12;100.00;97627.06;4983951;28;20078;-74
2023/06/17 02:18:17;;;;;;;6.78;4.50;;;12.70;99.90;;;11.13;100.00;97625.31;5010180;28;20062;-73
2023/06/17 02:20:44;;;;;;;7.97;3.72;;;12.60;99.90;;;11.08;100.00;97628.09;4977531;28;20098;-74
2023/06/17 02:23:11;;;;;;;7.80;3.85;;;12.50;99.90;;;11.07;100.00;97623.84;4984905;28;20042;-73
2023/06/17 02:25:39;;;;;;;7.63;4.35;;;12.50;99.90;;;11.10;100.00;97626.28;5010482;28;20053;-73
2023/06/17 02:28:08;;;;;;;8.25;4.25;;;12.50;99.90;;;11.08;100.00;97622.91;5008484;28;20046;-74
2023/06/17 02:30:35;;;;;;;7.90;4.32;;;12.50;99.90;;;11.16;100.00;97630.38;4967903;28;20062;-74
2023/06/17 02:33:03;;;;;;;6.75;4.43;;;12.60;99.90;;;11.20;100.00;97626.72;4979818;28;20989;-74
2023/06/17 02:35:30;;;;;;;7.25;4.13;;;12.60;99.90;;;11.23;100.00;97621.41;4996669;28;20510;-74
2023/06/17 02:37:57;;;;;;;6.28;3.80;;;12.60;99.90;;;11.51;100.00;97608.84;4978134;28;20439;-74
2023/06/17 02:40:27;;;;;;;6.40;3.55;;;12.70;99.90;;;11.58;100.00;97606.78;4979650;28;20194;-74
2023/06/17 02:42:55;;;;;;;7.05;3.38;;;12.70;99.90;;;11.63;100.00;97603.97;5011074;28;20067;-74
2023/06/17 02:45:22;;;;;;;7.03;3.60;;;12.80;99.90;;;11.57;100.00;97601.69;4969244;28;20047;-74
2023/06/17 02:47:50;;;;;;;7.38;4.55;;;12.80;99.90;;;11.40;100.00;97598.09;4977264;28;20603;-74
2023/06/17 02:50:23;;;;;;;10.15;4.03;;;12.80;99.90;;;11.36;100.00;97593.09;4992158;28;20138;-74
2023/06/17 02:52:55;;;;;;;5.30;3.20;;;12.70;99.90;;;11.38;100.00;97602.53;5010275;28;20146;-74
2023/06/17 02:55:25;;;;;;;5.47;3.35;;;12.70;99.90;;;11.42;100.00;97605.81;4976956;28;20134;-74
2023/06/17 02:57:53;;;;;;;6.70;3.90;;;12.70;99.90;;;11.30;100.00;97602.88;4971150;28;20058;-74
2023/06/17 03:00:20;;;;;;;9.25;4.13;;;12.70;99.90;;;11.28;100.00;97603.84;4979823;28;20403;-74
2023/06/17 03:02:48;;;;;;;8.90;3.65;;;12.60;99.90;;;11.16;100.00;97609.59;4991541;28;21614;-74
2023/06/17 03:05:18;;;;;;;8.57;4.25;;;12.60;99.90;;;11.13;100.00;97601.94;4982585;28;20083;-74
2023/06/17 03:07:46;;;;;;;6.85;4.00;;;12.50;99.90;;;11.09;100.00;97609.03;4979025;28;20420;-74
2023/06/17 03:10:15;;;;;;;9.70;4.05;;;12.40;99.90;;;10.87;100.00;97602.16;4977270;28;20050;-74
2023/06/17 03:12:42;;;;;;;6.18;4.25;;;12.40;99.90;;;10.82;100.00;97605.88;5010770;28;20050;-74
2023/06/17 03:15:10;;;;;;;9.20;4.00;;;12.30;99.90;;;10.88;100.00;97603.88;4975430;28;20117;-74
2023/06/17 03:17:37;;;;;;;6.18;3.97;;;12.20;99.90;;;10.86;100.00;97605.69;5008335;28;21797;-75
2023/06/17 03:20:08;;;;;;;10.38;4.18;;;12.20;99.90;;;10.83;100.00;97607.56;5008394;28;20483;-74
2023/06/17 03:22:35;;;;;;;5.72;3.85;;;12.20;99.90;;;10.79;100.00;97606.03;4977727;28;20061;-74
2023/06/17 03:25:03;;;;;;;6.63;4.07;;;12.10;99.90;;;10.84;100.00;97610.09;4978599;28;20053;-74
2023/06/17 03:27:31;;;;;;;5.85;3.92;;;12.10;99.90;;;10.83;100.00;97607.56;5006407;28;20137;-74
2023/06/17 03:29:58;;;;;;;6.82;4.28;;;12.10;99.90;;;10.83;100.00;97607.56;5011591;28;20043;-74
2023/06/17 03:32:25;;;;;;;6.40;3.85;;;12.10;99.90;;;10.78;100.00;97605.16;5008092;28;20105;-75
2023/06/17 03:34:52;;;;;;;6.93;4.38;;;12.20;99.90;;;10.65;100.00;97607.44;4979637;28;20724;-74
2023/06/17 03:37:20;;;;;;;7.80;3.97;;;12.10;99.90;;;10.46;100.00;97614.31;4977323;28;20057;-74
2023/06/17 03:39:47;;;;;;;6.97;4.13;;;12.00;99.90;;;10.49;100.00;97610.75;4975422;28;20633;-74
2023/06/17 03:42:16;;;;;;;8.60;4.70;;;11.90;99.90;;;10.47;100.00;97616.00;4975118;28;20054;-74
2023/06/17 03:44:43;;;;;;;7.47;3.70;;;11.90;99.90;;;10.52;100.00;97616.66;4977402;28;20502;-74
2023/06/17 03:47:10;;;;;;;6.78;4.25;;;11.90;99.90;;;10.61;100.00;97618.88;4977998;28;20519;-74
2023/06/17 03:49:37;;;;;;;8.35;4.95;;;11.90;99.90;;;10.63;100.00;97616.22;4975289;28;20050;-74
2023/06/17 03:52:05;;;;;;;10.10;4.85;;;11.90;99.90;;;10.85;100.00;97616.13;5011647;28;20046;-74
2023/06/17 03:54:32;;;;;;;5.60;3.63;;;12.00;99.90;;;11.05;100.00;97610.06;4977954;28;20510;-74
2023/06/17 03:56:59;;;;;;;8.75;4.03;;;12.10;99.90;;;11.24;100.00;97610.09;4993349;28;20047;-74
2023/06/17 03:59:26;;;;;;;4.72;3.55;;;12.20;99.90;;;11.28;100.00;97598.66;4979972;28;20152;-74
2023/06/17 04:01:54;;;;;;;6.63;4.10;;;12.30;99.90;;;11.07;100.00;97600.47;5011394;28;20055;-74
2023/06/17 04:04:21;;;;;;;8.52;4.07;;;12.30;99.90;;;11.13;100.00;97601.94;4978632;28;20054;-74
2023/06/17 04:06:49;;;;;;;6.03;3.92;;;12.30;99.90;;;11.23;100.00;97605.81;5009315;28;20526;-74
2023/06/17 04:09:16;;;;;;;7.75;4.15;;;12.40;99.90;;;11.18;100.00;97600.81;4978742;28;20141;-74
2023/06/17 04:11:43;;;;;;;7.35;3.42;;;12.40;99.90;;;11.28;100.00;97596.88;4973431;28;20050;-74
2023/06/17 04:14:11;;;;;;;7.22;4.50;;;12.40;99.90;;;11.43;100.00;97594.53;4976660;28;20404;-74
2023/06/17 04:16:41;;;;;;;9.80;4.20;;;12.40;99.90;;;11.55;100.00;97596.56;4982587;28;20054;-74
2023/06/17 04:19:13;;;;;;;11.82;4.40;;;12.50;99.90;;;11.49;100.00;97602.88;4978689;28;20050;-74
2023/06/17 04:21:41;;;;;;;15.50;4.47;;;12.50;99.90;;;11.54;100.00;97602.69;4981961;28;20050;-74
2023/06/17 04:24:08;;;;;;;10.50;4.32;;;12.60;99.90;;;11.50;100.00;97601.97;4980357;28;20086;-75
2023/06/17 04:26:36;;;;;;;10.73;4.90;;;12.60;99.90;;;11.72;100.00;97604.44;4979315;28;20062;-74
2023/06/17 04:29:03;;;;;;;10.52;4.40;;;12.70;99.90;;;11.95;100.00;97602.53;5011708;28;20042;-74
2023/06/17 04:31:32;;;;;;;9.30;4.57;;;12.80;99.90;;;12.01;100.00;97597.00;4981409;28;20136;-75
2023/06/17 04:34:00;;;;;;;9.75;4.30;;;12.90;99.90;;;12.05;100.00;97587.31;5008274;28;20058;-74
2023/06/17 04:36:28;;;;;;;7.75;4.35;;;13.00;99.90;;;12.18;100.00;97592.75;5007999;28;20112;-74
2023/06/17 04:38:56;;;;;;;11.30;4.32;;;13.10;99.90;;;12.28;100.00;97589.63;5009762;28;20109;-75
2023/06/17 04:41:26;;;;;;;7.55;4.70;;;13.10;99.90;;;12.23;100.00;97582.97;4978343;28;20693;-74
2023/06/17 04:43:53;;;;;;;6.35;4.32;;;13.20;99.90;;;12.41;100.00;97595.09;4984710;28;20054;-74
2023/06/17 04:46:20;;;;;;;8.05;4.88;;;13.30;99.90;;;12.53;100.00;97586.66;5001513;28;20133;-74
2023/06/17 04:48:48;;;;;;;7.88;4.60;;;13.30;99.90;;;12.74;100.00;97589.09;4982384;28;20058;-74
2023/06/17 04:51:17;;;;;;;7.75;4.53;;;13.40;99.90;;;12.86;100.00;97580.63;5011972;28;20051;-74
2023/06/17 04:53:44;;;;;;;9.82;4.68;;;13.60;99.90;;;12.95;100.00;97589.72;4981055;28;20404;-74
2023/06/17 04:56:12;;;;;;;6.05;3.55;;;13.70;99.90;;;13.08;100.00;97590.78;4980905;28;20771;-74
2023/06/17 04:58:39;;;;;;;6.13;3.90;;;13.80;99.90;;;13.29;100.00;97585.38;4979187;28;20050;-74
2023/06/17 05:01:10;;;;;;;8.80;4.57;;;;;;;13.27;100.00;97588.03;4979219;28;20546;-74
2023/06/17 05:03:37;;;;;;;8.52;4.68;;;14.00;99.90;;;13.41;100.00;97591.69;4983545;28;20484;-74
2023/06/17 05:06:05;;;;;;;9.35;4.50;;;14.10;99.90;;;13.63;100.00;97588.78;4979632;28;20892;-74
2023/06/17 05:08:32;;;;;;;7.72;5.18;;;14.30;99.90;;;13.86;100.00;97587.50;4996217;28;20049;-74
2023/06/17 05:10:59;;;;;;;7.90;5.07;;;14.40;99.90;;;14.04;100.00;97577.81;4980560;28;20500;-74
2023/06/17 05:13:26;;;;;;;9.55;5.38;;;14.60;99.90;;;14.15;100.00;97578.88;4979305;28;20415;-74
2023/06/17 05:15:53;;;;;;;7.30;5.10;;;14.70;99.90;;;14.26;100.00;97575.66;4981154;28;20046;-74
2023/06/17 05:18:20;;;;;;;8.35;5.55;;;14.80;99.90;;;14.43;100.00;97578.13;4974232;28;20149;-74
2023/06/17 05:20:47;;;;;;;7.35;4.93;;;15.00;99.90;;;14.84;100.00;97574.03;4975845;28;20062;-74
2023/06/17 05:23:14;;;;;;;6.65;5.32;;;15.20;99.90;;;14.98;100.00;97570.59;4980125;28;20058;-74
2023/06/17 05:25:42;;;;;;;6.70;5.40;;;15.40;99.90;;;15.21;100.00;97572.66;4995564;28;20059;-74
2023/06/17 05:28:10;;;;;;;8.10;6.13;;;15.60;99.90;;;15.41;100.00;97570.59;4982190;28;20047;-74
2023/06/17 05:30:39;;;;;;;9.35;5.75;;;15.80;99.90;;;15.61;100.00;97578.03;4979912;28;20050;-74
2023/06/17 05:33:07;;;;;;;6.45;5.13;;;16.00;99.90;;;15.85;100.00;97570.44;4983050;28;20138;-74
2023/06/17 05:35:37;;;;;;;6.45;5.40;;;16.00;99.90;;;15.87;100.00;97576.41;4981206;28;20058;-74
2023/06/17 05:38:04;;;;;;;6.22;4.72;;;16.20;99.90;;;16.06;100.00;97565.59;5010222;28;20050;-74
2023/06/17 05:40:32;;;;;;;6.20;5.10;;;16.30;99.90;;;16.34;100.00;97573.41;4992692;28;20058;-74
2023/06/17 05:43:01;;;;;;;6.13;4.65;;;16.50;99.90;;;16.60;100.00;97572.50;5018363;28;20105;-74
2023/06/17 05:45:28;;;;;;;6.47;5.18;;;16.80;99.90;;;16.66;100.00;97572.09;4985872;28;20051;-74
2023/06/17 05:47:55;;;;;;;5.47;4.20;;;17.00;99.90;;;17.01;100.00;97568.06;4978331;28;20050;-74
2023/06/17 05:50:22;;;;;;;7.20;5.07;;;17.20;99.90;;;17.17;100.00;97566.03;4977423;28;20050;-74
2023/06/17 05:52:50;;;;;;;7.38;4.70;;;17.40;99.90;;;17.39;100.00;97572.44;4987115;28;20060;-74
2023/06/17 05:55:17;;;;;;;5.28;4.00;;;17.60;99.90;;;17.64;100.00;97558.41;4979250;28;20193;-74
2023/06/17 05:57:44;;;;;;;6.47;4.75;;;17.70;99.90;;;17.79;100.00;97562.56;4979629;28;20078;-74
2023/06/17 06:00:12;;;;;;;6.95;4.68;;;;;;;17.86;100.00;97558.56;5009605;28;20135;-74
2023/06/17 06:02:40;;;;;;;8.35;5.05;;;18.10;99.90;;;17.92;100.00;97565.16;4976991;28;20565;-74
2023/06/17 06:05:07;;;;;;;8.02;4.82;;;18.20;99.90;;;17.89;100.00;97571.47;4979099;28;20042;-74
2023/06/17 06:07:35;;;;;;;5.65;4.72;;;18.20;99.90;;;18.09;100.00;97566.56;4981433;28;20112;-74
2023/06/17 06:10:05;;;;;;;9.50;4.50;;;18.20;99.90;;;18.46;100.00;97564.66;4978287;28;20511;-74
2023/06/17 06:12:32;;;;;;;6.88;4.70;;;18.40;99.90;;;18.64;100.00;97566.88;4978828;28;20102;-74
2023/06/17 06:14:59;;;;;;;7.53;5.22;;;18.70;99.90;;;18.95;100.00;97568.88;4982949;28;20226;-74
2023/06/17 06:17:27;;;;;;;5.65;4.57;;;18.90;99.90;;;19.10;100.00;97581.78;4978597;28;20058;-74
2023/06/17 06:19:55;;;;;;;4.40;3.78;;;19.10;99.90;;;19.36;100.00;97577.97;4981340;28;20057;-74
2023/06/17 06:22:22;;;;;;;7.53;4.43;;;19.40;99.90;;;19.59;100.00;97575.31;4986169;28;20090;-74
2023/06/17 06:24:51;;;;;;;5.25;3.80;;;19.70;99.90;;;19.88;100.00;97573.00;4976756;28;20046;-74
2023/06/17 06:27:19;;;;;;;7.30;3.45;;;19.90;99.90;;;20.18;100.00;97567.03;4982415;28;20058;-74
2023/06/17 06:29:49;;;;;;;6.78;4.15;;;20.10;99.90;;;20.13;100.00;97576.31;4980216;28;20072;-75
2023/06/17 06:32:17;;;;;;;6.85;4.07;;;20.40;99.90;;;20.28;100.00;97564.50;4979897;28;20050;-75
2023/06/17 06:34:45;;;;;;;7.70;4.25;;;20.50;99.90;;;20.38;100.00;97568.03;4980541;28;20084;-75
2023/06/17 06:37:12;;;;;;;7.72;3.85;;;20.70;99.90;;;20.57;100.00;97567.41;4977370;28;20139;-74
2023/06/17 06:39:39;;;;;;;5.13;3.83;;;20.90;99.90;;;20.86;100.00;97567.56;4966467;28;20634;-74
2023/06/17 06:42:07;;;;;;;4.63;3.55;;;21.10;99.90;;;20.84;100.00;97576.59;4976163;28;20136;-74
2023/06/17 06:44:34;;;;;;;7.93;3.92;;;21.30;99.90;;;20.83;100.00;97575.75;4979943;28;20535;-75
2023/06/17 06:47:01;;;;;;;4.68;3.30;;;21.40;99.90;;;21.05;100.00;97579.19;4980044;28;20042;-74
2023/06/17 06:49:28;;;;;;;5.00;3.95;;;21.50;99.90;;;21.20;100.00;97575.25;4980245;28;20057;-74
2023/06/17 06:51:55;;;;;;;5.53;3.42;;;21.70;99.90;;;21.17;100.00;97575.53;4977797;28;20089;-75
2023/06/17 06:54:22;;;;;;;6.25;4.32;;;21.70;99.90;;;21.33;100.00;97576.84;4978057;28;20486;-74
2023/06/17 06:56:49;;;;;;;8.27;3.95;;;21.90;99.60;;;21.41;100.00;97575.22;4980079;28;20050;-75
2023/06/17 06:59:16;;;;;;;9.50;3.67;;;22.00;99.00;;;21.60;100.00;97571.84;4975640;28;20154;-75
2023/06/17 07:01:43;;;;;;;7.28;4.43;;;22.10;99.10;;;21.79;100.00;97573.69;4975142;28;20053;-75
2023/06/17 07:04:11;;;;;;;6.78;3.95;;;22.20;99.10;;;21.80;100.00;97575.34;5009546;28;20495;-74
2023/06/17 07:06:38;;;;;;;7.45;3.97;;;22.30;98.60;;;21.67;100.00;97572.97;4980217;28;20053;-75
2023/06/17 07:09:05;;;;;;;7.78;4.22;;;22.20;99.00;;;22.08;100.00;97573.72;4978368;28;20054;-75
2023/06/17 07:11:32;;;;;;;8.18;4.50;;;22.40;99.50;;;22.02;100.00;97584.84;4978353;28;20078;-74
2023/06/17 07:14:03;;;;;;;6.25;4.00;;;22.50;99.10;;;22.49;100.00;97578.94;4990992;28;20392;-75
2023/06/17 07:16:30;;;;;;;7.43;4.10;;;22.70;99.10;;;22.61;100.00;97576.97;4981390;28;20058;-75
2023/06/17 07:18:58;;;;;;;6.13;4.10;;;22.90;99.20;;;22.83;100.00;97579.31;5007549;28;20101;-75
2023/06/17 07:21:26;;;;;;;10.75;4.35;;;;;;;22.45;100.00;97583.66;4990384;28;20626;-74
2023/06/17 07:23:52;;;;;;;7.18;3.63;;;23.20;96.80;;;23.00;100.00;97577.75;4974780;28;20046;-76
2023/06/17 07:26:20;;;;;;;9.73;4.10;;;23.20;97.80;;;23.07;100.00;97583.31;4975995;28;20086;-75
2023/06/17 07:28:47;;;;;;;7.70;4.47;;;23.30;96.70;;;23.03;100.00;97580.09;5005998;28;20129;-74
2023/06/17 07:31:16;;;;;;;7.00;4.47;;;23.40;97.20;;;22.96;100.00;97577.16;4981347;28;20109;-75
2023/06/17 07:33:43;;;;;;;8.88;4.38;;;23.50;96.40;;;23.11;100.00;97582.06;4981223;28;20564;-74
2023/06/17 07:36:13;;;;;;;6.55;4.38;;;23.60;97.40;;;23.06;100.00;97585.13;4978499;28;20655;-75
2023/06/17 07:38:40;;;;;;;10.48;4.15;;;23.70;97.50;;;22.98;100.00;97575.22;4994741;28;20121;-74
2023/06/17 07:41:07;;;;;;;9.02;4.25;;;23.80;96.10;;;23.14;100.00;97582.59;4979118;28;20046;-75
2023/06/17 07:43:34;;;;;;;11.60;4.32;;;23.70;96.30;;;23.18;100.00;97585.78;5010421;28;20420;-75
2023/06/17 07:46:01;;;;;;;8.90;4.53;;;23.80;96.10;;;23.52;100.00;97588.72;5012101;28;20050;-74
2023/06/17 07:48:32;;;;;;;5.97;4.20;;;23.80;95.80;;;23.63;100.00;97581.53;4982337;28;20423;-75
2023/06/17 07:50:59;;;;;;;8.07;4.28;;;24.00;96.50;;;23.56;100.00;97584.81;4975197;28;20109;-75
2023/06/17 07:53:26;;;;;;;10.27;4.35;;;24.10;96.90;;;23.56;100.00;97586.59;4961701;28;20173;-76
2023/06/17 07:55:54;;;;;;;10.15;4.70;;;24.10;96.40;;;23.69;100.00;97580.97;4976196;28;20531;-75
2023/06/17 07:58:21;;;;;;;10.95;4.90;;;24.10;96.10;;;23.83;100.00;97575.19;4979533;28;20603;-75
2023/06/17 08:00:47;;;;;;;7.57;4.55;;;24.20;96.20;;;23.47;100.00;97580.38;4975007;28;20055;-75
2023/06/17 08:03:15;;;;;;;7.80;4.50;;;24.30;95.60;;;23.88;100.00;97577.38;4978398;28;20074;-75
2023/06/17 08:05:42;;;;;;;13.32;4.32;;;24.30;95.00;;;23.87;100.00;97575.72;4975756;28;20198;-76
2023/06/17 08:08:09;;;;;;;6.82;3.90;;;24.40;95.40;;;24.03;100.00;97567.94;4981809;28;20574;-75
2023/06/17 08:10:36;;;;;;;7.82;4.38;;;24.60;95.10;;;24.56;100.00;97574.25;4974928;28;20074;-75
2023/06/17 08:13:04;;;;;;;7.45;4.32;;;24.70;94.90;;;24.05;100.00;97570.47;4975838;28;20082;-75
2023/06/17 08:15:31;;;;;;;7.18;4.35;;;24.80;93.80;;;24.46;100.00;97565.53;4978652;28;20098;-75
2023/06/17 08:17:58;;;;;;;11.00;4.20;;;24.90;93.70;;;24.37;100.00;97569.94;4978298;28;20101;-75
2023/06/17 08:20:25;;;;;;;10.90;4.07;;;24.90;93.10;;;24.34;100.00;97562.28;4984951;28;20054;-76
2023/06/17 08:22:52;;;;;;;6.57;3.80;;;24.90;91.90;;;24.33;100.00;97558.78;5006508;28;20141;-76
2023/06/17 08:25:20;;;;;;;6.80;3.90;;;25.00;90.70;;;24.67;100.00;97559.91;4980439;28;20141;-75
2023/06/17 08:27:47;;;;;;;6.20;3.88;;;25.20;90.70;;;24.69;100.00;97555.28;4977667;28;20585;-76
2023/06/17 08:30:15;;;;;;;8.40;4.20;;;25.20;90.20;;;24.73;100.00;97559.31;4974029;28;20531;-75
2023/06/17 08:32:42;;;;;;;6.85;4.20;;;25.30;90.20;;;24.95;100.00;97557.94;4980132;28;20051;-76
2023/06/17 08:35:09;;;;;;;6.85;3.92;;;25.40;89.20;;;25.09;100.00;97556.53;4975600;28;20165;-76
2023/06/17 08:37:37;;;;;;;6.13;3.83;;;25.50;88.50;;;25.55;96.96;97557.97;4974082;28;20054;-76
2023/06/17 08:40:05;;;;;;;7.75;3.72;;;25.50;87.30;;;25.47;94.69;97557.91;4984513;28;20080;-76
2023/06/17 08:42:32;;;;;;;5.40;3.58;;;25.70;86.30;;;25.74;90.29;97553.38;4994780;28;20562;-75
2023/06/17 08:45:00;;;;;;;6.25;3.20;;;25.80;84.90;;;26.44;88.00;97555.69;4976514;28;20046;-75
2023/06/17 08:47:27;;;;;;;8.38;3.65;;;25.90;85.00;;;26.36;78.51;97551.19;4978740;28;20105;-75
2023/06/17 08:49:58;;;;;;;5.10;3.47;;;26.20;80.90;;;26.62;77.36;97556.38;4979428;28;20058;-75
2023/06/17 08:52:27;;;;;;;7.00;3.75;;;26.30;80.30;;;26.60;73.20;97549.56;4991406;28;20065;-76
2023/06/17 08:54:55;;;;;;;6.13;3.90;;;26.50;78.10;;;27.55;72.55;97555.00;5004844;28;20141;-76
2023/06/17 08:57:22;;;;;;;6.70;3.45;;;26.70;77.60;;;27.44;69.31;97544.75;4979135;28;20081;-76
2023/06/17 08:59:49;;;;;;;4.28;2.97;;;27.00;76.10;;;26.95;65.48;97542.19;4975003;28;20063;-76
2023/06/17 09:02:16;;;;;;;8.35;3.25;;;27.30;73.00;;;27.84;67.91;97541.06;4977636;28;20519;-75
2023/06/17 09:04:44;;;;;;;5.32;3.30;;;27.60;74.20;;;28.13;65.94;97548.38;5002140;28;20054;-76
2023/06/17 09:07:12;;;;;;;4.22;3.22;;;28.00;72.50;;;27.07;61.10;97555.00;4986637;28;20122;-76
2023/06/17 09:09:41;;;;;;;4.85;2.97;;;28.50;68.40;;;28.01;62.10;97539.16;5011635;28;20058;-76
2023/06/17 09:12:09;;;;;;;6.75;2.65;;;28.60;69.60;;;27.53;61.59;97546.38;5009000;28;20404;-76
2023/06/17 09:14:36;;;;;;;5.05;2.88;;;28.70;68.00;;;27.91;61.04;97541.19;5012370;28;20138;-77
2023/06/17 09:17:03;;;;;;;5.05;3.47;;;28.90;67.30;;;27.78;61.36;97531.09;5011976;28;20070;-76
2023/06/17 09:19:31;;;;;;;5.65;2.90;;;29.20;67.30;;;28.72;62.44;97528.28;4980044;28;20110;-76
2023/06/17 09:22:08;;;;;;;12.85;3.33;;;29.60;68.00;;;27.75;57.65;97537.56;4977142;28;20050;-76
2023/06/17 09:24:42;;;;;;;6.55;3.03;;;29.90;64.10;;;27.66;55.86;97533.28;5009822;28;20136;-77
2023/06/17 09:27:21;;;;;;;5.63;2.65;;;30.00;62.50;;;28.50;57.57;97521.94;4980282;28;20058;-76
2023/06/17 09:30:14;;;;;;;5.28;3.00;;;30.10;63.70;;;30.15;57.77;97521.69;4976854;28;20511;-76
2023/06/17 09:32:44;;;;;;;4.60;2.75;;;;;;;29.01;54.93;97527.44;5006201;28;20137;-76
2023/06/17 09:35:14;;;;;;;7.75;3.20;;;31.60;61.20;;;28.62;55.67;97533.03;5009225;28;20047;-76
2023/06/17 09:37:49;;;;;;;5.50;3.03;;;31.10;61.30;;;29.73;55.00;97526.81;4978694;28;20094;-76
2023/06/17 09:40:32;;;;;;;4.47;2.70;;;31.20;62.00;;;30.33;54.34;97524.78;4979469;28;20101;-76
2023/06/17 09:43:01;;;;;;;2.92;2.53;;;31.60;61.20;;;29.69;52.41;97524.72;4982557;28;20077;-76
2023/06/17 09:45:49;;;;;;;6.05;2.83;;;32.30;59.60;;;30.30;51.96;97513.63;4993317;28;20074;-76
2023/06/17 09:48:17;;;;;;;5.78;2.72;;;31.30;59.10;;;29.77;52.31;97514.72;4975999;28;20738;-76
2023/06/17 09:50:44;;;;;;;5.75;3.00;;;31.30;59.30;;;30.48;51.89;97510.50;4977297;28;20057;-76
2023/06/17 09:53:13;;;;;;;5.47;3.00;;;31.80;59.10;;;30.81;50.73;97508.06;4977413;28;20082;-77
2023/06/17 09:55:41;;;;;;;5.55;2.83;;;32.30;59.00;;;30.99;50.89;97510.28;5014591;28;20058;-76
2023/06/17 09:58:11;;;;;;;3.25;2.50;;;32.60;58.60;;;30.64;51.47;97505.69;4985050;28;20047;-77
2023/06/17 10:00:38;;;;;;;5.22;3.20;;;32.40;58.80;;;29.35;53.33;97512.72;5011864;28;20050;-76
2023/06/17 10:03:06;;;;;;;6.22;2.92;;;31.80;59.20;;;29.76;52.40;97510.38;4996143;28;20042;-76
2023/06/17 10:05:33;;;;;;;3.92;2.50;;;31.60;58.70;;;30.10;50.57;97502.72;5009884;28;20074;-77
2023/06/17 10:08:00;;;;;;;4.82;2.33;;;31.20;58.20;;;30.15;51.54;97506.47;5011095;28;20508;-76
2023/06/17 10:10:28;;;;;;;6.88;2.13;;;31.50;59.00;;;29.76;49.55;97512.22;4980120;28;20054;-76
2023/06/17 10:13:00;;;;;;;8.45;2.47;;;31.20;57.10;;;30.37;50.17;97509.16;5012675;28;20526;-75
2023/06/17 10:15:28;;;;;;;4.70;2.22;;;31.50;57.80;;;30.96;48.98;97505.31;4986698;28;20129;-77
2023/06/17 10:17:56;;;;;;;5.95;2.67;;;31.80;57.80;;;31.81;50.67;97500.56;4983786;28;20112;-76
2023/06/17 10:20:31;;;;;;;8.45;2.67;;;32.20;59.00;;;31.87;47.89;97505.13;4978468;28;20050;-77